• Join FlightAware (Why Join?)
  • Login
  • US Flag 
05:06AM EDT


 

Airport Tracker/Info


-or-


 

Live Flight TrackerFlight Track Log ✈ EJA829P ✈ 04-Nov-2013 ✈ KSAN - KJVY

Flight Track Log - Related Links

Times and Time Zones

All times are in EST time to prevent confusion due to time zone crossing. See the EJA829P flight status page for this flight to view local times or setup timezone preferences in your user account.

Time Position Orientation Groundspeed Altitude Reporting Facility
EST Latitude Longitude Course Direction KTS MPH feet Rate Location/Type
10:34AM 32.7403 -117.2144 287° West 180 207 1,800  Level Los Angeles Center
10:35AM 32.7553 -117.2722 287° West 183 211 5,700 2,460 Climbing Los Angeles Center
10:36AM 32.7503 -117.3369 265° West 216 249 6,900 1,260 Climbing Los Angeles Center
10:37AM 32.6947 -117.3700 207° Southwest 225 259 8,400 2,940 Climbing Los Angeles Center
10:38AM 32.6472 -117.3106 133° Southeast 252 290 13,000 3,720 Climbing Los Angeles Center
10:39AM 32.6453 -117.2242 92° East 259 298 16,100 2,820 Climbing Los Angeles Center
10:40AM 32.6422 -117.1281 92° East 284 327 18,900 2,520 Climbing Los Angeles Center
10:41AM 32.6389 -117.0203 92° East 318 366 21,400 2,340 Climbing Los Angeles Center
10:42AM 32.6344 -116.9058 93° East 341 392 23,800 2,220 Climbing Los Angeles Center
10:43AM 32.6314 -116.7828 92° East 371 427 26,100 2,340 Climbing Los Angeles Center
10:44AM 32.6444 -116.6317 84° East 391 450 28,700 2,100 Climbing Los Angeles Center
10:45AM 32.6569 -116.5058 83° East 391 450 30,900 1,980 Climbing Los Angeles Center
10:47AM 32.6694 -116.3519 84° East 400 460 33,300 1,980 Climbing Los Angeles Center
10:48AM 32.6833 -116.2258 83° East 395 455 35,100 1,560 Climbing Los Angeles Center
10:49AM 32.6972 -116.0722 84° East 393 452 36,600 900 Climbing Los Angeles Center
10:50AM 32.7092 -115.9394 84° East 401 461 37,000 180 Climbing Los Angeles Center
10:51AM 32.7219 -115.7961 84° East 426 490 37,000  Level Los Angeles Center
10:52AM 32.7364 -115.6469 83° East 451 519 37,000  Level Los Angeles Center
10:53AM 32.7464 -115.5264 84° East 458 527 37,100 660 Climbing Los Angeles Center
10:54AM 32.7536 -115.3467 87° East 456 525 38,400 1,200 Climbing Los Angeles Center
10:55AM 32.7592 -115.1717 88° East 444 511 39,600 1,020 Climbing Los Angeles Center
10:56AM 32.7625 -115.0300 88° East 432 497 40,600 660 Climbing Los Angeles Center
10:57AM 32.7656 -114.8900 88° East 426 490 41,000 180 Climbing Los Angeles Center
10:58AM 32.7681 -114.7450 89° East 438 504 41,000  Level Los Angeles Center
10:59AM 32.7697 -114.5947 89° East 453 521 41,000  Level Los Angeles Center
11:00AM 32.7725 -114.4431 89° East 459 528 41,000  Level Los Angeles Center
11:01AM 32.7750 -114.2889 89° East 466 536 41,000  Level Los Angeles Center
11:02AM 32.7758 -114.1036 90° East 469 540 41,000  Level Los Angeles Center
11:03AM 32.7797 -113.9467 88° East 473 544 41,000  Level Los Angeles Center
11:04AM 32.8053 -113.7914 79° East 479 551 41,000  Level Los Angeles Center
11:05AM 32.8261 -113.6347 81° East 480 552 41,000  Level Los Angeles Center
11:06AM 32.8483 -113.4761 80° East 484 557 41,000  Level Los Angeles Center
11:07AM 32.8694 -113.3119 81° East 483 556 41,000  Level Los Angeles Center
11:08AM 32.8928 -113.1508 80° East 485 558 41,000  Level Albuquerque Center
11:09AM 32.9144 -112.9908 81° East 486 559 41,000  Level Albuquerque Center
11:10AM 32.9361 -112.8306 81° East 486 559 41,000  Level Albuquerque Center
11:11AM 32.9717 -112.6739 75° East 490 564 41,000  Level Albuquerque Center
11:12AM 33.0647 -112.5156 55° Northeast 488 562 41,000  Level Albuquerque Center
11:13AM 33.1500 -112.3897 51° Northeast 489 563 41,000  Level Albuquerque Center
11:14AM 33.2367 -112.2622 51° Northeast 494 568 41,000  Level Albuquerque Center
11:15AM 33.3222 -112.1339 51° Northeast 495 570 41,000  Level Albuquerque Center
11:16AM 33.4086 -112.0094 50° Northeast 492 566 41,000  Level Albuquerque Center
11:17AM 33.4828 -111.8336 63° Northeast 499 574 41,000  Level Albuquerque Center
11:18AM 33.5389 -111.6839 66° East 500 575 41,000  Level Albuquerque Center
11:20AM 33.5936 -111.5328 66° East 500 575 41,000  Level Albuquerque Center
11:21AM 33.6472 -111.3819 67° East 499 574 41,000  Level Albuquerque Center
11:22AM 33.7014 -111.2306 67° East 499 574 41,000  Level Albuquerque Center
11:23AM 33.7669 -111.0478 67° East 500 575 41,000  Level Albuquerque Center
11:24AM 33.8214 -110.8931 67° East 503 579 41,000  Level Albuquerque Center
11:25AM 33.8764 -110.7403 67° East 502 578 41,000  Level Albuquerque Center
11:26AM 33.9292 -110.5864 68° East 501 577 41,000  Level Albuquerque Center
11:27AM 33.9844 -110.4317 67° East 502 578 41,000  Level Albuquerque Center
11:28AM 34.0453 -110.2569 67° East 505 581 41,000  Level Albuquerque Center
11:29AM 34.0997 -110.0981 67° East 509 586 41,000  Level Albuquerque Center
11:30AM 34.1586 -109.9286 67° East 510 587 41,000  Level Albuquerque Center
11:31AM 34.2194 -109.7511 67° East 512 589 41,000  Level Albuquerque Center
11:32AM 34.2717 -109.5975 68° East 515 593 41,000  Level Albuquerque Center
11:33AM 34.3322 -109.4183 68° East 516 594 41,000  Level Albuquerque Center
11:34AM 34.3844 -109.2644 68° East 517 595 41,000  Level Albuquerque Center
11:35AM 34.4350 -109.1078 69° East 520 598 41,000  Level Albuquerque Center
11:36AM 34.4850 -108.9211 72° East 521 600 41,000  Level Albuquerque Center
11:37AM 34.5300 -108.7628 71° East 521 600 41,000  Level Albuquerque Center
11:38AM 34.5808 -108.5767 72° East 522 601 41,000  Level Albuquerque Center
11:39AM 34.6244 -108.4164 72° East 523 602 41,000  Level Albuquerque Center
11:40AM 34.6753 -108.2281 72° East 525 604 41,000  Level Albuquerque Center
11:41AM 34.7142 -108.0792 72° East 526 605 41,000  Level Albuquerque Center
11:42AM 34.7697 -107.8767 71° East 526 605 41,000  Level Albuquerque Center
11:43AM 34.8139 -107.7069 72° East 528 608 41,000  Level Albuquerque Center
11:44AM 34.8594 -107.5353 72° East 531 611 41,000  Level Albuquerque Center
11:45AM 34.9092 -107.3417 73° East 533 613 41,000  Level Albuquerque Center
11:46AM 34.9531 -107.1708 73° East 530 610 41,000  Level Albuquerque Center
11:47AM 35.0006 -106.9872 72° East 529 609 41,000  Level Albuquerque Center
11:48AM 35.0419 -106.8283 72° East 528 608 41,000  Level Albuquerque Center
11:50AM 35.1031 -106.6625 66° East 534 615 41,000  Level Albuquerque Center
11:51AM 35.1639 -106.4953 66° East 541 623 41,000  Level Albuquerque Center
11:53AM 35.2972 -106.1319 66° East 535 616 41,000  Level Albuquerque Center
11:54AM 35.3575 -105.9669 66° East 537 618 41,000  Level Albuquerque Center
11:55AM 35.4178 -105.8014 66° East 540 621 41,000  Level Albuquerque Center
11:56AM 35.4783 -105.6344 66° East 542 624 41,000  Level Albuquerque Center
11:57AM 35.5458 -105.4500 66° East 543 625 41,000  Level Albuquerque Center
11:58AM 35.6069 -105.2800 66° East 539 620 41,000  Level Albuquerque Center
11:59AM 35.6786 -105.0783 66° East 543 625 41,000  Level Albuquerque Center
12:00PM 35.7394 -104.9075 66° East 540 621 41,000  Level Albuquerque Center
12:01PM 35.8000 -104.7336 67° East 543 625 41,000  Level Albuquerque Center
12:02PM 35.8603 -104.5625 66° East 539 620 41,000  Level Albuquerque Center
12:03PM 35.9208 -104.3922 66° East 536 617 41,000  Level Albuquerque Center
12:04PM 35.9811 -104.2192 67° East 538 619 41,000  Level Albuquerque Center
12:05PM 36.0406 -104.0461 67° East 540 621 41,000  Level Albuquerque Center
12:06PM 36.1003 -103.8722 67° East 542 624 41,000  Level Albuquerque Center
12:07PM 36.1692 -103.6697 67° East 542 624 41,000  Level Albuquerque Center
12:08PM 36.2289 -103.4969 67° East 542 624 41,000  Level Albuquerque Center
12:09PM 36.2861 -103.3211 68° East 543 625 41,000  Level Albuquerque Center
12:10PM 36.3453 -103.1458 67° East 545 627 41,000  Level Albuquerque Center
12:11PM 36.4039 -102.9714 67° East 543 625 41,000  Level Albuquerque Center
12:12PM 36.4633 -102.7925 68° East 542 624 41,000  Level Albuquerque Center
12:13PM 36.5194 -102.6181 68° East 543 625 41,000  Level Albuquerque Center
12:14PM 36.5764 -102.4436 68° East 544 626 41,000  Level Albuquerque Center
12:15PM 36.6333 -102.2692 68° East 544 626 41,000  Level Albuquerque Center
12:16PM 36.6939 -102.0819 68° East 544 626 41,000  Level Albuquerque Center
12:17PM 36.7556 -101.8867 68° East 544 626 41,000  Level Albuquerque Center
12:18PM 36.8100 -101.7208 68° East 543 625 41,000  Level Albuquerque Center
12:19PM 36.8711 -101.5244 69° East 543 625 41,000  Level Albuquerque Center
12:21PM 36.9244 -101.3581 68° East 542 624 41,000  Level Albuquerque Center
12:22PM 36.9936 -101.1325 69° East 544 626 41,000  Level Kansas City Center
12:23PM 37.0453 -100.9667 69° East 541 623 41,000  Level Kansas City Center
12:24PM 37.0900 -100.7644 74° East 544 626 41,000  Level Kansas City Center
12:25PM 37.1289 -100.5922 74° East 542 624 41,000  Level Kansas City Center
12:26PM 37.1725 -100.3900 75° East 542 624 41,000  Level Kansas City Center
12:27PM 37.2103 -100.2172 75° East 541 623 41,000  Level Kansas City Center
12:28PM 37.2531 -100.0164 75° East 539 620 41,000  Level Kansas City Center
12:29PM 37.2906 -99.8433 75° East 539 620 41,000  Level Kansas City Center
12:30PM 37.3331 -99.6417 75° East 538 619 41,000  Level Kansas City Center
12:31PM 37.3694 -99.4683 75° East 538 619 41,000  Level Kansas City Center
12:32PM 37.4131 -99.2686 75° East 538 619 41,000  Level Kansas City Center
12:33PM 37.4486 -99.0858 76° East 538 619 41,000  Level Kansas City Center
12:34PM 37.4850 -98.9033 76° East 539 620 41,000  Level Kansas City Center
12:35PM 37.5214 -98.7214 76° East 537 618 41,000  Level Kansas City Center
12:36PM 37.5578 -98.5383 76° East 540 621 41,000  Level Kansas City Center
12:37PM 37.5944 -98.3569 76° East 537 618 41,000  Level Kansas City Center
12:38PM 37.6383 -98.1369 76° East 542 624 41,000  Level Kansas City Center
12:39PM 37.6714 -97.9575 77° East 539 620 41,000  Level Kansas City Center
12:40PM 37.7072 -97.7722 76° East 540 621 41,000  Level Kansas City Center
12:41PM 37.7422 -97.5850 77° East 544 626 41,000  Level Kansas City Center
12:42PM 37.7833 -97.3731 76° East 539 620 41,000  Level Kansas City Center
12:43PM 37.8167 -97.1894 77° East 539 620 41,000  Level Kansas City Center
12:44PM 37.8497 -97.0069 77° East 537 618 41,000  Level Kansas City Center
12:45PM 37.8828 -96.8233 77° East 537 618 41,000  Level Kansas City Center
12:47PM 37.9142 -96.6392 78° East 535 616 41,000  Level Kansas City Center
12:48PM 37.9461 -96.4539 78° East 538 619 41,000  Level Kansas City Center
12:49PM 37.9825 -96.2333 78° East 534 615 41,000  Level Kansas City Center
12:50PM 38.0106 -96.0658 78° East 532 612 41,000  Level Kansas City Center
12:51PM 38.0436 -95.8597 78° East 533 613 41,000  Level Kansas City Center
12:52PM 38.0742 -95.6822 78° East 538 619 41,000  Level Kansas City Center
12:53PM 38.1106 -95.4750 77° East 541 623 41,000  Level Kansas City Center
12:54PM 38.1411 -95.2975 78° East 540 621 41,000  Level Kansas City Center
12:55PM 38.1772 -95.0889 78° East 542 624 41,000  Level Kansas City Center
12:56PM 38.2050 -94.9092 79° East 545 627 41,000  Level Kansas City Center
12:57PM 38.2392 -94.6989 78° East 545 627 41,000  Level Kansas City Center
12:58PM 38.2669 -94.5200 79° East 543 625 41,000  Level Kansas City Center
12:59PM 38.3003 -94.3106 78° East 543 625 41,000  Level Kansas City Center
01:00PM 38.3297 -94.1306 78° East 543 625 41,000  Level Kansas City Center
01:01PM 38.3639 -93.9256 78° East 542 624 41,000  Level Kansas City Center
01:02PM 38.3933 -93.7367 79° East 543 625 41,000  Level Kansas City Center
01:03PM 38.4253 -93.5447 78° East 548 631 41,000  Level Kansas City Center
01:04PM 38.4550 -93.3536 79° East 547 629 41,000  Level Kansas City Center
01:05PM 38.4850 -93.1614 79° East 548 631 41,000  Level Kansas City Center
01:06PM 38.5133 -92.9714 79° East 545 627 41,000  Level Kansas City Center
01:07PM 38.5483 -92.7414 79° East 544 626 41,000  Level Kansas City Center
01:08PM 38.5764 -92.5486 79° East 545 627 41,000  Level Kansas City Center
01:09PM 38.6044 -92.3553 79° East 547 629 41,000  Level Kansas City Center
01:10PM 38.6317 -92.1636 80° East 544 626 41,000  Level Kansas City Center
01:11PM 38.6589 -91.9714 80° East 545 627 41,000  Level Kansas City Center
01:12PM 38.6853 -91.7806 80° East 543 625 41,000  Level Kansas City Center
01:13PM 38.7119 -91.5875 80° East 539 620 41,000  Level Kansas City Center
01:14PM 38.7381 -91.3983 80° East 541 623 41,000  Level Kansas City Center
01:15PM 38.7653 -91.2075 80° East 543 625 41,000  Level Kansas City Center
01:17PM 38.7961 -90.9808 80° East 541 623 41,000  Level Kansas City Center
01:18PM 38.8211 -90.7919 80° East 538 619 41,000  Level Kansas City Center
01:19PM 38.8456 -90.6022 81° East 538 619 41,000  Level Kansas City Center
01:20PM 38.8536 -90.4100 87° East 546 628 41,000  Level Kansas City Center
01:21PM 38.8386 -90.2206 96° East 536 617 41,000  Level Kansas City Center
01:22PM 38.8206 -90.0322 97° East 532 612 41,000  Level Kansas City Center
01:23PM 38.8061 -89.8297 95° East 537 618 41,000  Level Kansas City Center
01:24PM 38.7711 -89.6111 102° East 530 610 41,000  Level Kansas City Center
01:25PM 38.7228 -89.4350 109° East 523 602 41,000 -120 Level Kansas City Center
01:26PM 38.6742 -89.2592 109° East 523 602 40,800 -840 Descending Kansas City Center
01:27PM 38.5981 -88.9906 110° East 522 601 38,800 -1,560 Descending Indianapolis Center
01:29PM 38.5414 -88.7833 109° East 516 594 36,600 -2,160 Descending Indianapolis Center
01:30PM 38.4925 -88.6139 110° East 509 586 34,400 -2,160 Descending Indianapolis Center
01:31PM 38.4461 -88.4497 110° East 494 568 32,200 -2,100 Descending Indianapolis Center
01:32PM 38.3992 -88.2867 110° East 489 563 30,100 -1,980 Descending Indianapolis Center
01:33PM 38.3733 -88.1142 101° East 495 570 28,200 -1,560 Descending Indianapolis Center
01:34PM 38.3636 -87.9381 94° East 500 575 26,900 -1,500 Descending Indianapolis Center
01:35PM 38.3547 -87.7661 94° East 487 560 25,200 -2,400 Descending Indianapolis Center
01:36PM 38.3436 -87.5611 94° East 482 555 22,000 -2,520 Descending Indianapolis Center
01:37PM 38.3358 -87.4097 94° East 433 498 20,100 -1,680 Descending Indianapolis Center
01:38PM 38.3258 -87.2603 95° East 425 489 18,600 -1,500 Descending Indianapolis Center
01:39PM 38.3058 -87.1089 100° East 415 478 17,000 -1,500 Descending Indianapolis Center
01:40PM 38.2872 -86.9625 99° East 402 463 15,500 -1,380 Descending Indianapolis Center
01:41PM 38.2711 -86.8319 99° East 382 440 14,200 -1,260 Descending Indianapolis Center
01:42PM 38.2544 -86.7025 99° East 372 428 12,900 -1,320 Descending Indianapolis Center
01:43PM 38.2375 -86.5725 99° East 373 429 11,500 -1,260 Descending Indianapolis Center
01:44PM 38.2217 -86.4508 99° East 355 409 10,400 -1,500 Descending Indianapolis Center
01:45PM 38.2136 -86.3475 96° East 301 346 8,500 -1,860 Descending Indianapolis Center
01:46PM 38.2400 -86.2436 72° East 306 352 6,600 -1,860 Descending Indianapolis Center
01:47PM 38.2694 -86.1272 72° East 297 342 4,700 -1,260 Descending Indianapolis Center
01:48PM 38.2928 -86.0331 72° East 287 330 4,100 -540 Descending Indianapolis Center
01:49PM 38.3144 -85.9417 73° East 277 319 3,600 -540 Descending Indianapolis Center
01:50PM 38.3369 -85.8511 72° East 271 312 3,100 -360 Descending Indianapolis Center
01:51PM 38.3572 -85.7675 73° East 270 311 2,900 -240 Descending Indianapolis Center
01:53PM 38.3500 -85.7333 72° East  Level FlightAware Approximate
02:00PM 38.3654 -85.7382 72° East  Level Estimated
02:01PM 38.3654 -85.7382 72° East  Level Estimated
02:02PM 38.3654 -85.7382 72° East  Level Estimated
02:03PM 38.3654 -85.7382 72° East  Level Estimated
02:04PM 38.3654 -85.7382 72° East  Level Estimated
02:05PM 38.3654 -85.7382 72° East  Level Estimated
02:06PM 38.3654 -85.7382 72° East  Level Estimated
02:07PM 38.3654 -85.7382 72° East  Level Estimated
02:08PM 38.3654 -85.7382 72° East  Level Estimated